sensor_id;sensor_type;location;lat;lon;timestamp;pressure;altitude;pressure_sealevel;temperature;humidity
12785;BME280;6456;42.680;23.260;2023-12-07T00:00:16;94294.97;;;6.62;100.00
12785;BME280;6456;42.680;23.260;2023-12-07T00:02:59;94268.38;;;6.38;100.00
12785;BME280;6456;42.680;23.260;2023-12-07T00:05:33;94265.94;;;6.30;100.00
12785;BME280;6456;42.680;23.260;2023-12-07T00:08:22;94320.78;;;6.71;100.00
12785;BME280;6456;42.680;23.260;2023-12-07T00:10:49;94281.47;;;6.45;100.00
12785;BME280;6456;42.680;23.260;2023-12-07T00:13:17;94279.84;;;6.44;100.00
12785;BME280;6456;42.680;23.260;2023-12-07T00:15:44;94312.28;;;6.56;100.00
12785;BME280;6456;42.680;23.260;2023-12-07T00:18:11;94327.38;;;6.67;100.00
12785;BME280;6456;42.680;23.260;2023-12-07T00:20:39;94287.06;;;6.42;100.00
12785;BME280;6456;42.680;23.260;2023-12-07T00:23:14;94257.44;;;6.22;100.00
12785;BME280;6456;42.680;23.260;2023-12-07T00:25:42;94265.63;;;6.12;100.00
12785;BME280;6456;42.680;23.260;2023-12-07T00:28:14;94270.72;;;6.20;100.00
12785;BME280;6456;42.680;23.260;2023-12-07T00:30:40;94281.38;;;6.25;100.00
12785;BME280;6456;42.680;23.260;2023-12-07T00:33:08;94328.78;;;6.63;100.00
12785;BME280;6456;42.680;23.260;2023-12-07T00:35:59;94295.75;;;6.49;100.00
12785;BME280;6456;42.680;23.260;2023-12-07T00:38:29;94297.38;;;6.57;100.00
12785;BME280;6456;42.680;23.260;2023-12-07T00:40:58;94317.59;;;6.82;100.00
12785;BME280;6456;42.680;23.260;2023-12-07T00:43:35;94327.66;;;6.85;100.00
12785;BME280;6456;42.680;23.260;2023-12-07T00:46:16;94316.56;;;6.77;100.00
12785;BME280;6456;42.680;23.260;2023-12-07T00:48:43;94308.09;;;6.75;100.00
12785;BME280;6456;42.680;23.260;2023-12-07T00:51:11;94239.00;;;6.36;100.00
12785;BME280;6456;42.680;23.260;2023-12-07T00:53:39;94261.22;;;6.60;100.00
12785;BME280;6456;42.680;23.260;2023-12-07T00:56:07;94281.34;;;6.73;100.00
12785;BME280;6456;42.680;23.260;2023-12-07T00:58:34;94270.09;;;6.72;100.00
12785;BME280;6456;42.680;23.260;2023-12-07T01:01:01;94321.25;;;7.01;100.00
12785;BME280;6456;42.680;23.260;2023-12-07T01:03:29;94292.66;;;6.86;100.00
12785;BME280;6456;42.680;23.260;2023-12-07T01:05:56;94302.13;;;6.94;100.00
12785;BME280;6456;42.680;23.260;2023-12-07T01:08:23;94312.22;;;7.03;100.00
12785;BME280;6456;42.680;23.260;2023-12-07T01:10:52;94249.16;;;6.66;100.00
12785;BME280;6456;42.680;23.260;2023-12-07T01:13:19;94263.06;;;6.73;100.00
12785;BME280;6456;42.680;23.260;2023-12-07T01:15:46;94297.69;;;6.94;100.00
12785;BME280;6456;42.680;23.260;2023-12-07T01:18:13;94275.34;;;6.79;100.00
12785;BME280;6456;42.680;23.260;2023-12-07T01:20:43;94293.88;;;6.90;100.00
12785;BME280;6456;42.680;23.260;2023-12-07T01:23:11;94269.31;;;6.78;100.00
12785;BME280;6456;42.680;23.260;2023-12-07T01:25:43;94256.84;;;6.74;100.00
12785;BME280;6456;42.680;23.260;2023-12-07T01:28:20;94225.59;;;6.53;100.00
12785;BME280;6456;42.680;23.260;2023-12-07T01:30:51;94291.03;;;6.92;100.00
12785;BME280;6456;42.680;23.260;2023-12-07T01:33:44;94219.16;;;6.49;100.00
12785;BME280;6456;42.680;23.260;2023-12-07T01:36:17;94285.19;;;6.77;100.00
12785;BME280;6456;42.680;23.260;2023-12-07T01:38:44;94273.25;;;6.55;100.00
12785;BME280;6456;42.680;23.260;2023-12-07T01:41:12;94287.56;;;6.59;100.00
12785;BME280;6456;42.680;23.260;2023-12-07T01:43:45;94291.38;;;6.63;100.00
12785;BME280;6456;42.680;23.260;2023-12-07T01:46:13;94281.91;;;6.62;100.00
12785;BME280;6456;42.680;23.260;2023-12-07T01:48:41;94274.88;;;6.56;100.00
12785;BME280;6456;42.680;23.260;2023-12-07T01:51:09;94311.97;;;6.79;100.00
12785;BME280;6456;42.680;23.260;2023-12-07T01:53:38;94282.16;;;6.73;100.00
12785;BME280;6456;42.680;23.260;2023-12-07T01:56:07;94249.13;;;6.53;100.00
12785;BME280;6456;42.680;23.260;2023-12-07T01:58:44;94216.91;;;6.39;100.00
12785;BME280;6456;42.680;23.260;2023-12-07T02:01:13;94278.19;;;6.84;100.00
12785;BME280;6456;42.680;23.260;2023-12-07T02:03:40;94284.19;;;6.84;100.00
12785;BME280;6456;42.680;23.260;2023-12-07T02:06:08;94273.72;;;6.84;100.00
12785;BME280;6456;42.680;23.260;2023-12-07T02:08:36;94271.53;;;6.81;100.00
12785;BME280;6456;42.680;23.260;2023-12-07T02:11:07;94282.59;;;6.90;100.00
12785;BME280;6456;42.680;23.260;2023-12-07T02:13:35;94236.69;;;6.61;100.00
12785;BME280;6456;42.680;23.260;2023-12-07T02:16:07;94304.38;;;7.03;100.00
12785;BME280;6456;42.680;23.260;2023-12-07T02:18:42;94272.53;;;6.80;100.00
12785;BME280;6456;42.680;23.260;2023-12-07T02:21:18;94223.78;;;6.53;100.00
12785;BME280;6456;42.680;23.260;2023-12-07T02:23:47;94252.38;;;6.74;100.00
12785;BME280;6456;42.680;23.260;2023-12-07T02:26:52;94290.88;;;7.00;100.00
12785;BME280;6456;42.680;23.260;2023-12-07T02:29:19;94291.66;;;6.94;100.00
12785;BME280;6456;42.680;23.260;2023-12-07T02:31:48;94263.66;;;6.75;100.00
12785;BME280;6456;42.680;23.260;2023-12-07T02:34:16;94289.84;;;6.88;100.00
12785;BME280;6456;42.680;23.260;2023-12-07T02:37:01;94226.56;;;6.38;100.00
12785;BME280;6456;42.680;23.260;2023-12-07T02:39:42;94201.97;;;6.13;100.00
12785;BME280;6456;42.680;23.260;2023-12-07T02:42:13;94292.19;;;6.63;100.00
12785;BME280;6456;42.680;23.260;2023-12-07T02:44:42;94255.53;;;6.43;100.00
12785;BME280;6456;42.680;23.260;2023-12-07T02:47:12;94265.41;;;6.48;100.00
12785;BME280;6456;42.680;23.260;2023-12-07T02:49:40;94272.03;;;6.51;100.00
12785;BME280;6456;42.680;23.260;2023-12-07T02:52:10;94238.41;;;6.34;100.00
12785;BME280;6456;42.680;23.260;2023-12-07T02:54:40;94285.94;;;6.64;100.00
12785;BME280;6456;42.680;23.260;2023-12-07T02:57:07;94294.22;;;6.68;100.00
12785;BME280;6456;42.680;23.260;2023-12-07T02:59:36;94241.63;;;6.36;100.00
12785;BME280;6456;42.680;23.260;2023-12-07T03:02:04;94282.31;;;6.59;100.00
12785;BME280;6456;42.680;23.260;2023-12-07T03:04:31;94225.28;;;6.21;100.00
12785;BME280;6456;42.680;23.260;2023-12-07T03:06:59;94278.28;;;6.56;100.00
12785;BME280;6456;42.680;23.260;2023-12-07T03:09:26;94305.06;;;6.65;100.00
12785;BME280;6456;42.680;23.260;2023-12-07T03:11:53;94287.34;;;6.67;100.00
12785;BME280;6456;42.680;23.260;2023-12-07T03:14:20;94240.03;;;6.35;100.00
12785;BME280;6456;42.680;23.260;2023-12-07T03:16:49;94254.28;;;6.39;100.00
12785;BME280;6456;42.680;23.260;2023-12-07T03:19:16;94283.09;;;6.53;100.00
12785;BME280;6456;42.680;23.260;2023-12-07T03:21:43;94233.47;;;6.12;100.00
12785;BME280;6456;42.680;23.260;2023-12-07T03:24:10;94280.03;;;6.42;100.00
12785;BME280;6456;42.680;23.260;2023-12-07T03:26:38;94283.31;;;6.51;100.00
12785;BME280;6456;42.680;23.260;2023-12-07T03:29:08;94284.81;;;6.32;100.00
12785;BME280;6456;42.680;23.260;2023-12-07T03:31:35;94308.25;;;6.54;100.00
12785;BME280;6456;42.680;23.260;2023-12-07T03:34:08;94243.34;;;6.16;100.00
12785;BME280;6456;42.680;23.260;2023-12-07T03:36:35;94235.28;;;6.11;100.00
12785;BME280;6456;42.680;23.260;2023-12-07T03:39:02;94297.38;;;6.50;100.00
12785;BME280;6456;42.680;23.260;2023-12-07T03:41:30;94244.97;;;6.17;100.00
12785;BME280;6456;42.680;23.260;2023-12-07T03:44:05;94262.94;;;6.33;100.00
12785;BME280;6456;42.680;23.260;2023-12-07T03:46:35;94269.97;;;6.39;100.00
12785;BME280;6456;42.680;23.260;2023-12-07T03:49:02;94292.56;;;6.54;100.00
12785;BME280;6456;42.680;23.260;2023-12-07T03:51:37;94257.94;;;6.38;100.00
12785;BME280;6456;42.680;23.260;2023-12-07T03:54:21;94247.03;;;6.28;100.00
12785;BME280;6456;42.680;23.260;2023-12-07T03:57:08;94254.91;;;6.41;100.00
12785;BME280;6456;42.680;23.260;2023-12-07T03:59:49;94296.22;;;6.72;100.00
12785;BME280;6456;42.680;23.260;2023-12-07T04:03:03;94242.25;;;6.38;100.00
12785;BME280;6456;42.680;23.260;2023-12-07T04:09:36;94307.13;;;6.89;100.00
12785;BME280;6456;42.680;23.260;2023-12-07T04:12:48;94243.84;;;6.39;100.00
12785;BME280;6456;42.680;23.260;2023-12-07T04:15:47;94267.63;;;6.58;100.00
12785;BME280;6456;42.680;23.260;2023-12-07T04:18:40;94318.41;;;6.89;100.00
12785;BME280;6456;42.680;23.260;2023-12-07T04:27:36;94297.59;;;6.62;100.00
12785;BME280;6456;42.680;23.260;2023-12-07T04:30:15;94317.19;;;6.79;100.00
12785;BME280;6456;42.680;23.260;2023-12-07T04:32:42;94315.94;;;6.75;100.00
12785;BME280;6456;42.680;23.260;2023-12-07T04:35:09;94321.19;;;6.75;100.00
12785;BME280;6456;42.680;23.260;2023-12-07T04:37:36;94289.38;;;6.65;100.00
12785;BME280;6456;42.680;23.260;2023-12-07T04:40:04;94295.19;;;6.67;100.00
12785;BME280;6456;42.680;23.260;2023-12-07T04:42:36;94340.16;;;6.96;100.00
12785;BME280;6456;42.680;23.260;2023-12-07T04:45:06;94334.13;;;6.96;100.00
12785;BME280;6456;42.680;23.260;2023-12-07T04:47:33;94343.78;;;7.02;100.00
12785;BME280;6456;42.680;23.260;2023-12-07T04:50:00;94325.25;;;6.90;100.00
12785;BME280;6456;42.680;23.260;2023-12-07T04:52:31;94306.72;;;6.85;100.00
12785;BME280;6456;42.680;23.260;2023-12-07T04:54:58;94285.38;;;6.75;100.00
12785;BME280;6456;42.680;23.260;2023-12-07T04:57:26;94327.50;;;7.00;100.00
12785;BME280;6456;42.680;23.260;2023-12-07T04:59:54;94327.06;;;6.90;100.00
12785;BME280;6456;42.680;23.260;2023-12-07T05:02:21;94329.69;;;6.96;100.00
12785;BME280;6456;42.680;23.260;2023-12-07T05:04:48;94292.59;;;6.67;100.00
12785;BME280;6456;42.680;23.260;2023-12-07T05:07:15;94301.84;;;6.63;100.00
12785;BME280;6456;42.680;23.260;2023-12-07T05:09:43;94330.06;;;6.80;100.00
12785;BME280;6456;42.680;23.260;2023-12-07T05:12:10;94357.03;;;6.87;100.00
12785;BME280;6456;42.680;23.260;2023-12-07T05:14:37;94301.00;;;6.56;100.00
12785;BME280;6456;42.680;23.260;2023-12-07T05:17:05;94323.34;;;6.65;100.00
12785;BME280;6456;42.680;23.260;2023-12-07T05:19:34;94336.47;;;6.71;100.00
12785;BME280;6456;42.680;23.260;2023-12-07T05:22:01;94351.41;;;6.84;100.00
12785;BME280;6456;42.680;23.260;2023-12-07T05:24:28;94310.22;;;6.52;100.00
12785;BME280;6456;42.680;23.260;2023-12-07T05:26:55;94366.69;;;6.87;100.00
12785;BME280;6456;42.680;23.260;2023-12-07T05:29:22;94368.69;;;6.91;100.00
12785;BME280;6456;42.680;23.260;2023-12-07T05:31:50;94338.88;;;6.73;100.00
12785;BME280;6456;42.680;23.260;2023-12-07T05:34:28;94375.16;;;6.95;100.00
12785;BME280;6456;42.680;23.260;2023-12-07T05:36:55;94373.97;;;6.98;100.00
12785;BME280;6456;42.680;23.260;2023-12-07T05:39:22;94297.97;;;6.52;100.00
12785;BME280;6456;42.680;23.260;2023-12-07T05:41:49;94370.34;;;6.99;100.00
12785;BME280;6456;42.680;23.260;2023-12-07T05:44:16;94332.88;;;6.79;100.00
12785;BME280;6456;42.680;23.260;2023-12-07T05:46:47;94371.56;;;7.03;100.00
12785;BME280;6456;42.680;23.260;2023-12-07T05:49:14;94355.44;;;6.86;100.00
12785;BME280;6456;42.680;23.260;2023-12-07T05:51:42;94379.00;;;6.99;100.00
12785;BME280;6456;42.680;23.260;2023-12-07T05:54:09;94363.88;;;6.88;100.00
12785;BME280;6456;42.680;23.260;2023-12-07T05:56:36;94376.00;;;7.02;100.00
12785;BME280;6456;42.680;23.260;2023-12-07T05:59:04;94350.97;;;6.87;100.00
12785;BME280;6456;42.680;23.260;2023-12-07T06:01:31;94379.41;;;7.03;100.00
12785;BME280;6456;42.680;23.260;2023-12-07T06:03:58;94360.69;;;6.93;100.00
12785;BME280;6456;42.680;23.260;2023-12-07T06:06:25;94378.66;;;7.16;100.00
12785;BME280;6456;42.680;23.260;2023-12-07T06:08:56;94344.19;;;6.99;100.00
12785;BME280;6456;42.680;23.260;2023-12-07T06:11:23;94309.13;;;6.74;100.00
12785;BME280;6456;42.680;23.260;2023-12-07T06:13:50;94364.16;;;7.13;100.00
12785;BME280;6456;42.680;23.260;2023-12-07T06:16:17;94398.22;;;7.26;100.00
12785;BME280;6456;42.680;23.260;2023-12-07T06:18:52;94385.72;;;7.28;100.00
12785;BME280;6456;42.680;23.260;2023-12-07T06:21:22;94397.41;;;7.32;100.00
12785;BME280;6456;42.680;23.260;2023-12-07T06:23:50;94370.22;;;7.20;100.00
12785;BME280;6456;42.680;23.260;2023-12-07T06:26:19;94362.16;;;7.15;100.00
12785;BME280;6456;42.680;23.260;2023-12-07T06:28:47;94360.72;;;7.19;100.00
12785;BME280;6456;42.680;23.260;2023-12-07T06:31:14;94345.03;;;7.06;100.00
12785;BME280;6456;42.680;23.260;2023-12-07T06:33:45;94392.19;;;7.32;100.00
12785;BME280;6456;42.680;23.260;2023-12-07T06:36:18;94399.22;;;7.32;100.00
12785;BME280;6456;42.680;23.260;2023-12-07T06:38:46;94379.03;;;7.19;100.00
12785;BME280;6456;42.680;23.260;2023-12-07T06:41:14;94401.84;;;7.32;100.00
12785;BME280;6456;42.680;23.260;2023-12-07T06:43:42;94400.19;;;7.24;100.00
12785;BME280;6456;42.680;23.260;2023-12-07T06:46:10;94354.47;;;7.07;100.00
12785;BME280;6456;42.680;23.260;2023-12-07T06:48:37;94347.81;;;6.98;100.00
12785;BME280;6456;42.680;23.260;2023-12-07T06:51:05;94416.97;;;7.49;100.00
12785;BME280;6456;42.680;23.260;2023-12-07T06:53:32;94349.44;;;7.12;100.00
12785;BME280;6456;42.680;23.260;2023-12-07T06:55:59;94415.97;;;7.50;100.00
12785;BME280;6456;42.680;23.260;2023-12-07T06:58:26;94413.56;;;7.55;100.00
12785;BME280;6456;42.680;23.260;2023-12-07T07:00:54;94401.09;;;7.51;100.00
12785;BME280;6456;42.680;23.260;2023-12-07T07:03:21;94410.56;;;7.58;100.00
12785;BME280;6456;42.680;23.260;2023-12-07T07:05:48;94415.59;;;7.60;100.00
12785;BME280;6456;42.680;23.260;2023-12-07T07:08:15;94391.34;;;7.32;100.00
12785;BME280;6456;42.680;23.260;2023-12-07T07:10:43;94385.91;;;7.20;100.00
12785;BME280;6456;42.680;23.260;2023-12-07T07:13:12;94428.25;;;7.43;100.00
12785;BME280;6456;42.680;23.260;2023-12-07T07:15:41;94419.16;;;7.33;100.00
12785;BME280;6456;42.680;23.260;2023-12-07T07:18:10;94372.13;;;6.92;100.00
12785;BME280;6456;42.680;23.260;2023-12-07T07:20:37;94399.38;;;7.10;100.00
12785;BME280;6456;42.680;23.260;2023-12-07T07:23:04;94424.59;;;7.38;100.00
12785;BME280;6456;42.680;23.260;2023-12-07T07:25:33;94426.03;;;7.40;100.00
12785;BME280;6456;42.680;23.260;2023-12-07T07:28:01;94409.84;;;7.17;100.00
12785;BME280;6456;42.680;23.260;2023-12-07T07:30:28;94418.28;;;7.13;100.00
12785;BME280;6456;42.680;23.260;2023-12-07T07:32:55;94444.91;;;7.23;100.00
12785;BME280;6456;42.680;23.260;2023-12-07T07:35:24;94440.84;;;7.20;100.00
12785;BME280;6456;42.680;23.260;2023-12-07T07:37:52;94424.28;;;7.00;100.00
12785;BME280;6456;42.680;23.260;2023-12-07T07:40:19;94446.56;;;6.89;100.00
12785;BME280;6456;42.680;23.260;2023-12-07T07:42:47;94443.00;;;6.63;100.00
12785;BME280;6456;42.680;23.260;2023-12-07T07:45:14;94435.06;;;6.50;100.00
12785;BME280;6456;42.680;23.260;2023-12-07T07:47:41;94429.38;;;6.39;100.00
12785;BME280;6456;42.680;23.260;2023-12-07T07:50:09;94444.91;;;6.47;100.00
12785;BME280;6456;42.680;23.260;2023-12-07T07:52:38;94443.69;;;6.43;100.00
12785;BME280;6456;42.680;23.260;2023-12-07T07:55:06;94450.19;;;6.54;100.00
12785;BME280;6456;42.680;23.260;2023-12-07T07:57:33;94428.41;;;6.40;100.00
12785;BME280;6456;42.680;23.260;2023-12-07T08:00:00;94470.47;;;6.52;100.00
12785;BME280;6456;42.680;23.260;2023-12-07T08:02:27;94460.88;;;6.31;100.00
12785;BME280;6456;42.680;23.260;2023-12-07T08:04:54;94397.16;;;5.98;100.00
12785;BME280;6456;42.680;23.260;2023-12-07T08:07:21;94470.38;;;6.39;100.00
12785;BME280;6456;42.680;23.260;2023-12-07T08:09:49;94425.34;;;6.09;100.00
12785;BME280;6456;42.680;23.260;2023-12-07T08:12:16;94417.03;;;5.99;100.00
12785;BME280;6456;42.680;23.260;2023-12-07T08:14:43;94491.53;;;6.44;100.00
12785;BME280;6456;42.680;23.260;2023-12-07T08:17:11;94478.47;;;6.44;100.00
12785;BME280;6456;42.680;23.260;2023-12-07T08:19:38;94466.06;;;6.25;100.00
12785;BME280;6456;42.680;23.260;2023-12-07T08:22:05;94424.78;;;5.86;100.00
12785;BME280;6456;42.680;23.260;2023-12-07T08:24:32;94500.59;;;6.20;100.00
12785;BME280;6456;42.680;23.260;2023-12-07T08:27:01;94462.66;;;5.82;100.00
12785;BME280;6456;42.680;23.260;2023-12-07T08:29:29;94463.53;;;5.68;100.00
12785;BME280;6456;42.680;23.260;2023-12-07T08:31:56;94505.97;;;5.91;100.00
12785;BME280;6456;42.680;23.260;2023-12-07T08:34:23;94471.53;;;5.66;100.00
12785;BME280;6456;42.680;23.260;2023-12-07T08:36:50;94486.97;;;5.82;100.00
12785;BME280;6456;42.680;23.260;2023-12-07T08:39:18;94472.81;;;5.70;100.00
12785;BME280;6456;42.680;23.260;2023-12-07T08:41:45;94505.59;;;5.94;100.00
12785;BME280;6456;42.680;23.260;2023-12-07T08:44:13;94473.78;;;5.69;100.00
12785;BME280;6456;42.680;23.260;2023-12-07T08:46:40;94475.59;;;5.69;100.00
12785;BME280;6456;42.680;23.260;2023-12-07T08:49:10;94488.28;;;5.72;100.00
12785;BME280;6456;42.680;23.260;2023-12-07T08:51:37;94508.69;;;5.83;100.00
12785;BME280;6456;42.680;23.260;2023-12-07T08:54:04;94518.88;;;5.78;100.00
12785;BME280;6456;42.680;23.260;2023-12-07T08:56:31;94511.50;;;5.67;100.00
12785;BME280;6456;42.680;23.260;2023-12-07T08:58:58;94488.28;;;5.51;100.00
12785;BME280;6456;42.680;23.260;2023-12-07T09:01:27;94436.66;;;5.10;100.00
12785;BME280;6456;42.680;23.260;2023-12-07T09:03:55;94492.06;;;5.34;100.00
12785;BME280;6456;42.680;23.260;2023-12-07T09:06:22;94528.03;;;5.53;100.00
12785;BME280;6456;42.680;23.260;2023-12-07T09:08:50;94483.47;;;5.33;100.00
12785;BME280;6456;42.680;23.260;2023-12-07T09:11:17;94453.28;;;5.09;100.00
12785;BME280;6456;42.680;23.260;2023-12-07T09:13:45;94457.59;;;5.02;100.00
12785;BME280;6456;42.680;23.260;2023-12-07T09:16:12;94462.81;;;5.02;100.00
12785;BME280;6456;42.680;23.260;2023-12-07T09:18:42;94468.19;;;5.15;100.00
12785;BME280;6456;42.680;23.260;2023-12-07T09:21:10;94513.84;;;5.41;100.00
12785;BME280;6456;42.680;23.260;2023-12-07T09:23:37;94491.41;;;5.10;100.00
12785;BME280;6456;42.680;23.260;2023-12-07T09:26:04;94528.47;;;5.21;100.00
12785;BME280;6456;42.680;23.260;2023-12-07T09:28:32;94518.75;;;5.14;100.00
12785;BME280;6456;42.680;23.260;2023-12-07T09:30:59;94525.47;;;5.09;100.00
12785;BME280;6456;42.680;23.260;2023-12-07T09:33:26;94518.28;;;4.96;100.00
12785;BME280;6456;42.680;23.260;2023-12-07T09:35:55;94485.22;;;4.82;100.00
12785;BME280;6456;42.680;23.260;2023-12-07T09:38:22;94479.94;;;4.76;100.00
12785;BME280;6456;42.680;23.260;2023-12-07T09:40:52;94504.09;;;4.84;100.00
12785;BME280;6456;42.680;23.260;2023-12-07T09:43:19;94531.72;;;4.93;100.00
12785;BME280;6456;42.680;23.260;2023-12-07T09:45:47;94529.81;;;4.87;100.00
12785;BME280;6456;42.680;23.260;2023-12-07T09:48:15;94490.19;;;4.77;100.00
12785;BME280;6456;42.680;23.260;2023-12-07T09:50:43;94504.09;;;4.84;100.00
12785;BME280;6456;42.680;23.260;2023-12-07T09:53:12;94512.81;;;4.91;100.00
12785;BME280;6456;42.680;23.260;2023-12-07T09:55:39;94509.84;;;4.80;100.00
12785;BME280;6456;42.680;23.260;2023-12-07T09:58:06;94509.94;;;4.86;100.00
12785;BME280;6456;42.680;23.260;2023-12-07T10:00:34;94527.09;;;4.66;100.00
12785;BME280;6456;42.680;23.260;2023-12-07T10:03:00;94506.25;;;4.66;100.00
12785;BME280;6456;42.680;23.260;2023-12-07T10:05:33;94466.69;;;4.33;100.00
12785;BME280;6456;42.680;23.260;2023-12-07T10:08:01;94474.13;;;4.22;100.00
12785;BME280;6456;42.680;23.260;2023-12-07T10:10:31;94485.44;;;4.14;100.00
12785;BME280;6456;42.680;23.260;2023-12-07T10:12:59;94534.69;;;4.38;100.00
12785;BME280;6456;42.680;23.260;2023-12-07T10:15:26;94520.88;;;4.38;100.00
12785;BME280;6456;42.680;23.260;2023-12-07T10:17:54;94497.28;;;4.17;100.00
12785;BME280;6456;42.680;23.260;2023-12-07T10:20:23;94481.47;;;4.04;100.00
12785;BME280;6456;42.680;23.260;2023-12-07T10:23:00;94502.47;;;4.02;100.00
12785;BME280;6456;42.680;23.260;2023-12-07T10:25:30;94512.47;;;4.13;100.00
12785;BME280;6456;42.680;23.260;2023-12-07T10:27:57;94515.44;;;4.10;100.00
12785;BME280;6456;42.680;23.260;2023-12-07T10:30:24;94442.59;;;3.65;100.00
12785;BME280;6456;42.680;23.260;2023-12-07T10:32:53;94501.72;;;3.94;100.00
12785;BME280;6456;42.680;23.260;2023-12-07T10:35:20;94502.66;;;4.01;100.00
12785;BME280;6456;42.680;23.260;2023-12-07T10:37:47;94514.66;;;4.02;100.00
12785;BME280;6456;42.680;23.260;2023-12-07T10:40:14;94495.59;;;3.86;100.00
12785;BME280;6456;42.680;23.260;2023-12-07T10:42:47;94517.34;;;3.94;100.00
12785;BME280;6456;42.680;23.260;2023-12-07T10:45:15;94476.66;;;3.78;100.00
12785;BME280;6456;42.680;23.260;2023-12-07T10:47:44;94502.09;;;3.91;100.00
12785;BME280;6456;42.680;23.260;2023-12-07T10:50:13;94508.38;;;3.96;100.00
12785;BME280;6456;42.680;23.260;2023-12-07T10:52:45;94507.41;;;3.97;100.00
12785;BME280;6456;42.680;23.260;2023-12-07T10:55:16;94513.06;;;4.01;100.00
12785;BME280;6456;42.680;23.260;2023-12-07T10:57:46;94505.59;;;3.98;100.00
12785;BME280;6456;42.680;23.260;2023-12-07T11:00:14;94511.44;;;4.00;100.00
12785;BME280;6456;42.680;23.260;2023-12-07T11:02:42;94493.47;;;3.90;100.00
12785;BME280;6456;42.680;23.260;2023-12-07T11:05:10;94520.97;;;4.07;100.00
12785;BME280;6456;42.680;23.260;2023-12-07T11:07:45;94517.28;;;4.02;100.00
12785;BME280;6456;42.680;23.260;2023-12-07T11:10:20;94479.41;;;3.76;100.00
12785;BME280;6456;42.680;23.260;2023-12-07T11:12:56;94494.72;;;3.94;100.00
12785;BME280;6456;42.680;23.260;2023-12-07T11:15:27;94514.09;;;4.14;100.00
12785;BME280;6456;42.680;23.260;2023-12-07T11:17:55;94486.22;;;4.00;100.00
12785;BME280;6456;42.680;23.260;2023-12-07T11:20:32;94509.50;;;4.16;100.00
12785;BME280;6456;42.680;23.260;2023-12-07T11:22:59;94512.66;;;4.26;100.00
12785;BME280;6456;42.680;23.260;2023-12-07T11:25:26;94483.72;;;4.07;100.00
12785;BME280;6456;42.680;23.260;2023-12-07T11:28:01;94484.34;;;4.09;100.00
12785;BME280;6456;42.680;23.260;2023-12-07T11:30:33;94510.19;;;4.33;100.00
12785;BME280;6456;42.680;23.260;2023-12-07T11:33:03;94516.03;;;4.35;100.00
12785;BME280;6456;42.680;23.260;2023-12-07T11:35:30;94506.84;;;4.39;100.00
12785;BME280;6456;42.680;23.260;2023-12-07T11:38:02;94509.47;;;4.53;100.00
12785;BME280;6456;42.680;23.260;2023-12-07T11:40:29;94503.56;;;4.60;100.00
12785;BME280;6456;42.680;23.260;2023-12-07T11:43:00;94477.66;;;4.43;100.00
12785;BME280;6456;42.680;23.260;2023-12-07T11:45:40;94450.72;;;4.36;100.00
12785;BME280;6456;42.680;23.260;2023-12-07T11:48:11;94407.88;;;4.10;100.00
12785;BME280;6456;42.680;23.260;2023-12-07T11:50:58;94428.78;;;4.16;100.00
12785;BME280;6456;42.680;23.260;2023-12-07T11:53:27;94502.84;;;4.66;100.00
12785;BME280;6456;42.680;23.260;2023-12-07T11:55:55;94452.50;;;4.36;100.00
12785;BME280;6456;42.680;23.260;2023-12-07T11:58:25;94482.25;;;4.56;100.00
12785;BME280;6456;42.680;23.260;2023-12-07T12:00:53;94477.03;;;4.56;100.00
12785;BME280;6456;42.680;23.260;2023-12-07T12:03:22;94456.19;;;4.41;100.00
12785;BME280;6456;42.680;23.260;2023-12-07T12:05:49;94439.41;;;4.29;100.00
12785;BME280;6456;42.680;23.260;2023-12-07T12:08:16;94515.22;;;4.64;100.00
12785;BME280;6456;42.680;23.260;2023-12-07T12:10:44;94478.81;;;4.41;100.00
12785;BME280;6456;42.680;23.260;2023-12-07T12:13:12;94442.44;;;4.18;100.00
12785;BME280;6456;42.680;23.260;2023-12-07T12:15:40;94454.84;;;4.31;100.00
12785;BME280;6456;42.680;23.260;2023-12-07T12:18:08;94502.19;;;4.49;100.00
12785;BME280;6456;42.680;23.260;2023-12-07T12:20:35;94501.22;;;4.50;100.00
12785;BME280;6456;42.680;23.260;2023-12-07T12:23:03;94465.00;;;4.26;100.00
12785;BME280;6456;42.680;23.260;2023-12-07T12:25:30;94456.53;;;4.24;100.00
12785;BME280;6456;42.680;23.260;2023-12-07T12:28:01;94468.13;;;4.36;100.00
12785;BME280;6456;42.680;23.260;2023-12-07T12:30:29;94508.16;;;4.58;100.00
12785;BME280;6456;42.680;23.260;2023-12-07T12:32:58;94475.25;;;4.42;100.00
12785;BME280;6456;42.680;23.260;2023-12-07T12:35:26;94480.19;;;4.37;100.00
12785;BME280;6456;42.680;23.260;2023-12-07T12:37:53;94480.72;;;4.47;100.00
12785;BME280;6456;42.680;23.260;2023-12-07T12:40:22;94437.75;;;4.14;100.00
12785;BME280;6456;42.680;23.260;2023-12-07T12:42:51;94466.59;;;4.27;100.00
12785;BME280;6456;42.680;23.260;2023-12-07T12:45:19;94474.59;;;4.25;100.00
12785;BME280;6456;42.680;23.260;2023-12-07T12:47:47;94460.28;;;4.07;100.00
12785;BME280;6456;42.680;23.260;2023-12-07T12:50:37;94508.84;;;4.37;100.00
12785;BME280;6456;42.680;23.260;2023-12-07T12:53:05;94460.44;;;3.91;100.00
12785;BME280;6456;42.680;23.260;2023-12-07T12:55:36;94493.56;;;3.97;100.00
12785;BME280;6456;42.680;23.260;2023-12-07T12:58:04;94523.09;;;4.04;100.00
12785;BME280;6456;42.680;23.260;2023-12-07T13:00:33;94517.72;;;3.91;100.00
12785;BME280;6456;42.680;23.260;2023-12-07T13:03:02;94524.81;;;3.97;100.00
12785;BME280;6456;42.680;23.260;2023-12-07T13:05:28;94515.69;;;3.78;100.00
12785;BME280;6456;42.680;23.260;2023-12-07T13:07:57;94527.13;;;3.92;100.00
12785;BME280;6456;42.680;23.260;2023-12-07T13:10:25;94488.66;;;3.56;100.00
12785;BME280;6456;42.680;23.260;2023-12-07T13:12:52;94529.56;;;3.70;100.00
12785;BME280;6456;42.680;23.260;2023-12-07T13:15:19;94474.19;;;3.31;100.00
12785;BME280;6456;42.680;23.260;2023-12-07T13:17:46;94537.06;;;3.65;100.00
12785;BME280;6456;42.680;23.260;2023-12-07T13:20:14;94511.66;;;3.45;100.00
12785;BME280;6456;42.680;23.260;2023-12-07T13:22:41;94515.25;;;3.44;100.00